Time;durP1;ratioP1;P1;durP2;ratioP2;P2;SDS_P1;SDS_P2;PMS_P1;PMS_P2;Temp;Humidity;BMP_temperature;BMP_pressure;BME280_temperature;BME280_humidity;BME280_pressure;Samples;Min_cycle;Max_cycle;Signal;HPM_P1;HPM_P2
2022/02/27 00:00:10;;;;;;;14.32;3.97;;;;;;;-2.89;90.27;96776.16;4989586;28;20050;-73
2022/02/27 00:02:56;;;;;;;15.55;4.10;;;;;;;-2.79;90.02;96771.69;4980134;28;20065;-73
2022/02/27 00:05:21;;;;;;;11.52;4.88;;;;;;;-2.78;89.77;96778.47;4981554;28;20515;-73
2022/02/27 00:07:47;;;;;;;11.07;3.95;;;;;;;-2.80;89.43;96770.91;4990043;28;20042;-73
2022/02/27 00:10:14;;;;;;;16.23;5.00;;;;;;;-2.82;89.21;96777.16;4981550;28;20042;-73
2022/02/27 00:12:39;;;;;;;11.75;3.80;;;;;;;-2.86;89.20;96786.16;4989109;28;20122;-73
2022/02/27 00:15:05;;;;;;;13.88;3.92;;;;;;;-2.92;88.66;96782.44;4989389;28;20046;-73
2022/02/27 00:17:31;;;;;;;13.02;3.78;;;;;;;-2.97;89.07;96782.88;4989428;28;20132;-73
2022/02/27 00:19:57;;;;;;;13.43;4.22;;;;;;;-2.95;89.70;96777.59;4976648;28;20667;-73
2022/02/27 00:22:22;;;;;;;15.45;4.03;;;;;;;-2.94;90.51;96778.38;4989031;28;20058;-73
2022/02/27 00:24:48;;;;;;;16.45;4.70;;;;;;;-2.99;90.07;96787.41;4987340;28;20496;-73
2022/02/27 00:27:13;;;;;;;9.20;3.60;;;;;;;-3.10;91.37;96779.94;4985514;28;20050;-73
2022/02/27 00:29:39;;;;;;;21.80;4.43;;;;;;;-3.07;91.65;96779.63;4989388;28;20065;-73
2022/02/27 00:32:05;;;;;;;11.98;4.00;;;;;;;-2.87;91.03;96794.88;4989247;28;20046;-73
2022/02/27 00:34:31;;;;;;;12.95;3.53;;;;;;;-2.91;90.94;96778.09;4981726;28;20069;-73
2022/02/27 00:36:57;;;;;;;13.68;4.55;;;;;;;-3.25;91.48;96781.44;4988656;28;20042;-73
2022/02/27 00:39:22;;;;;;;12.35;3.78;;;;;;;-3.15;92.47;96787.28;4988243;28;20097;-73
2022/02/27 00:41:48;;;;;;;12.98;3.80;;;;;;;-3.10;91.82;96785.06;4983290;28;20038;-73
2022/02/27 00:44:13;;;;;;;13.43;3.60;;;;;;;-2.94;91.30;96783.53;4982074;28;20053;-73
2022/02/27 00:46:39;;;;;;;11.85;3.70;;;;;;;-2.87;91.05;96784.56;4979369;28;20042;-73
2022/02/27 00:49:04;;;;;;;9.60;3.40;;;;;;;-2.80;90.69;96780.41;4984293;28;20049;-72
2022/02/27 00:51:31;;;;;;;12.15;4.43;;;;;;;-2.80;89.95;96775.25;4977196;28;20486;-72
2022/02/27 00:53:57;;;;;;;11.65;3.80;;;;;;;-2.86;90.25;96776.69;4982933;28;20035;-73
2022/02/27 00:56:23;;;;;;;10.13;3.67;;;;;;;-2.85;90.33;96782.63;4982348;28;20411;-72
2022/02/27 00:58:50;;;;;;;12.02;3.70;;;;;;;-2.88;90.18;96782.94;4983787;28;20066;-73
2022/02/27 01:01:19;;;;;;;13.75;4.35;;;;;;;-3.02;91.20;96777.38;4987402;28;20058;-72
2022/02/27 01:03:45;;;;;;;9.00;3.80;;;;;;;-2.86;90.79;96775.84;4986003;28;20053;-72
2022/02/27 01:06:12;;;;;;;14.43;4.90;;;;;;;-2.94;91.02;96773.22;4985177;28;20046;-73
2022/02/27 01:08:37;;;;;;;15.63;4.05;;;;;;;-3.05;91.26;96767.38;4979519;28;20049;-73
2022/02/27 01:11:03;;;;;;;10.40;4.10;;;;;;;-3.12;91.48;96771.53;4986923;28;20117;-72
2022/02/27 01:13:28;;;;;;;15.48;4.43;;;;;;;-3.11;91.74;96765.44;4987820;28;20035;-72
2022/02/27 01:15:54;;;;;;;11.25;4.07;;;;;;;-3.19;90.53;96760.22;4988959;28;20034;-72
2022/02/27 01:18:19;;;;;;;13.00;4.75;;;;;;;-3.19;91.74;96758.47;4980243;28;20423;-72
2022/02/27 01:20:45;;;;;;;12.32;4.35;;;;;;;-3.17;91.50;96763.47;4987829;28;20172;-72
2022/02/27 01:23:11;;;;;;;11.57;4.40;;;;;;;-3.32;91.74;96760.63;4988027;28;20061;-73
2022/02/27 01:25:37;;;;;;;12.88;4.65;;;;;;;-3.36;92.05;96760.13;4979537;28;20631;-72
2022/02/27 01:28:03;;;;;;;13.23;4.50;;;;;;;-3.41;92.12;96762.34;4986303;28;20491;-72
2022/02/27 01:30:29;;;;;;;13.88;3.92;;;;;;;-3.42;92.58;96760.75;4988810;28;20038;-73
2022/02/27 01:32:55;;;;;;;14.45;4.47;;;;;;;-3.45;92.25;96761.00;4986931;28;20050;-73
2022/02/27 01:35:20;;;;;;;13.65;4.15;;;;;;;-3.46;92.71;96764.56;4976555;28;20039;-72
2022/02/27 01:37:46;;;;;;;12.13;4.50;;;;;;;-3.37;92.84;96773.16;4979287;28;20482;-72
2022/02/27 01:40:12;;;;;;;10.23;3.92;;;;;;;-3.42;92.47;96755.59;4988244;28;20034;-73
2022/02/27 01:42:38;;;;;;;13.85;4.22;;;;;;;-3.43;93.60;96753.97;4977267;28;20054;-73
2022/02/27 01:45:05;;;;;;;13.35;4.57;;;;;;;-3.42;93.02;96755.59;4987157;28;20397;-72
2022/02/27 01:47:30;;;;;;;11.45;4.57;;;;;;;-3.38;93.31;96754.31;4984797;28;20049;-72
2022/02/27 01:49:56;;;;;;;13.00;4.10;;;;;;;-3.40;92.09;96758.81;4985038;28;20038;-73
2022/02/27 01:52:22;;;;;;;17.38;4.80;;;;;;;-3.39;92.00;96754.47;4985977;28;20046;-72
2022/02/27 01:54:47;;;;;;;13.90;4.50;;;;;;;-3.44;92.45;96752.34;4990723;28;20077;-72
2022/02/27 01:57:14;;;;;;;13.80;3.92;;;;;;;-3.42;92.93;96755.59;4992180;28;20097;-72
2022/02/27 01:59:40;;;;;;;18.70;5.13;;;;;;;-3.46;93.20;96759.41;4991890;28;20134;-72
2022/02/27 02:02:07;;;;;;;11.60;4.10;;;;;;;-3.42;92.62;96755.59;4989816;28;20053;-72
2022/02/27 02:04:33;;;;;;;16.10;4.78;;;;;;;-3.54;92.45;96747.28;4988281;28;20109;-72
2022/02/27 02:06:59;;;;;;;10.55;3.90;;;;;;;-3.57;92.70;96746.78;4990437;28;20333;-72
2022/02/27 02:09:26;;;;;;;22.27;5.07;;;;;;;-3.60;92.84;96747.09;4990940;28;20047;-72
2022/02/27 02:11:52;;;;;;;15.02;4.20;;;;;;;-3.62;92.56;96749.00;4984497;28;20046;-72
2022/02/27 02:14:17;;;;;;;18.83;4.47;;;;;;;-3.75;93.51;96749.38;4987818;28;20081;-72
2022/02/27 02:16:45;;;;;;;12.55;4.60;;;;;;;-3.74;93.76;96746.66;4991999;28;20043;-72
2022/02/27 02:19:15;;;;;;;13.05;4.32;;;;;;;-3.72;92.94;96749.91;4987821;28;20253;-72
2022/02/27 02:21:46;;;;;;;14.05;4.63;;;;;;;-3.75;92.63;96745.06;4986801;28;20038;-72
2022/02/27 02:24:13;;;;;;;11.55;4.22;;;;;;;-3.86;92.88;96745.28;4988284;28;20042;-72
2022/02/27 02:26:40;;;;;;;16.38;4.50;;;;;;;-3.88;93.11;96760.03;4985183;28;20061;-72
2022/02/27 02:29:07;;;;;;;12.30;4.93;;;;;;;-3.95;93.90;96748.72;4991760;28;20042;-72
2022/02/27 02:31:34;;;;;;;17.83;4.43;;;;;;;-3.89;94.56;96743.00;4984331;28;20041;-72
2022/02/27 02:34:07;;;;;;;16.80;4.45;;;;;;;-3.95;94.23;96733.28;4983870;28;20134;-72
2022/02/27 02:36:33;;;;;;;14.30;5.13;;;;;;;-3.94;94.51;96735.72;4990151;28;20034;-71
2022/02/27 02:39:00;;;;;;;12.10;4.70;;;;;;;-3.91;95.00;96734.63;4991805;28;20038;-72
2022/02/27 02:41:26;;;;;;;9.82;4.38;;;;;;;-3.78;94.27;96731.66;4990301;28;20510;-72
2022/02/27 02:43:52;;;;;;;16.63;4.70;;;;;;;-3.84;93.95;96735.63;4989823;28;20149;-72
2022/02/27 02:46:17;;;;;;;12.25;4.22;;;;;;;-3.95;94.25;96730.72;4991004;28;20507;-72
2022/02/27 02:48:42;;;;;;;12.27;4.53;;;;;;;-3.95;94.81;96730.72;4989310;28;20042;-72
2022/02/27 02:51:08;;;;;;;10.38;4.72;;;;;;;-3.97;94.83;96730.06;4990436;28;20089;-72
2022/02/27 02:53:39;;;;;;;14.60;4.63;;;;;;;-3.91;94.05;96729.47;4991233;28;20471;-71
2022/02/27 02:56:05;;;;;;;11.90;4.40;;;;;;;-3.98;93.66;96718.16;4988776;28;20042;-71
2022/02/27 02:58:35;;;;;;;9.40;4.28;;;;;;;-4.03;93.59;96721.97;4991087;28;20049;-71
2022/02/27 03:01:02;;;;;;;15.10;3.92;;;;;;;-4.01;94.42;96720.09;4990961;28;20046;-71
2022/02/27 03:03:28;;;;;;;16.00;4.20;;;;;;;-3.99;94.21;96717.38;4981588;28;20112;-71
2022/02/27 03:05:54;;;;;;;13.68;5.28;;;;;;;-4.07;94.04;96712.94;4989638;28;20038;-71
2022/02/27 03:08:20;;;;;;;13.57;4.30;;;;;;;-4.13;95.26;96720.44;4978773;28;20050;-71
2022/02/27 03:10:46;;;;;;;14.30;4.60;;;;;;;-4.13;95.02;96718.69;4986177;28;20046;-71
2022/02/27 03:13:12;;;;;;;12.60;4.20;;;;;;;-4.11;93.09;96714.19;4976592;28;20077;-71
2022/02/27 03:15:38;;;;;;;15.32;4.38;;;;;;;-4.11;94.05;96719.31;4990775;28;20124;-71
2022/02/27 03:18:04;;;;;;;11.30;4.03;;;;;;;-4.13;93.65;96708.41;4989997;28;20054;-71
2022/02/27 03:20:30;;;;;;;12.25;4.45;;;;;;;-4.11;94.01;96719.31;4990485;28;20066;-71
2022/02/27 03:22:55;;;;;;;13.82;5.20;;;;;;;-4.08;94.12;96703.63;4983914;28;20125;-71
2022/02/27 03:25:22;;;;;;;12.32;4.68;;;;;;;-4.12;94.77;96712.59;4981349;28;20160;-71
2022/02/27 03:27:48;;;;;;;14.50;4.45;;;;;;;-4.15;95.52;96712.88;4990722;28;20042;-71
2022/02/27 03:30:14;;;;;;;12.07;4.05;;;;;;;-4.15;94.66;96719.78;4990158;28;20459;-71
2022/02/27 03:32:46;;;;;;;16.40;4.65;;;;;;;-4.18;94.48;96718.28;4980673;28;20113;-71
2022/02/27 03:35:20;;;;;;;15.00;4.38;;;;;;;-4.15;95.30;96723.16;4990931;28;20600;-71
2022/02/27 03:37:50;;;;;;;15.25;4.18;;;;;;;-4.10;94.62;96720.94;4990855;28;20046;-72
2022/02/27 03:40:19;;;;;;;9.63;3.63;;;;;;;-3.94;94.10;96716.91;4987648;28;20730;-72
2022/02/27 03:42:46;;;;;;;11.75;4.50;;;;;;;-3.96;93.70;96721.41;4987994;28;20408;-71
2022/02/27 03:45:12;;;;;;;10.40;3.97;;;;;;;-4.01;94.17;96725.22;4987513;28;20050;-72
2022/02/27 03:47:38;;;;;;;12.25;4.15;;;;;;;-4.12;94.87;96716.91;4986990;28;20407;-72
2022/02/27 03:50:05;;;;;;;11.52;4.18;;;;;;;-4.22;95.54;96712.66;4987692;28;20069;-71
2022/02/27 03:52:30;;;;;;;10.15;3.45;;;;;;;-4.23;94.89;96720.50;4988911;28;20043;-71
2022/02/27 03:54:59;;;;;;;12.15;4.15;;;;;;;-4.28;94.51;96718.38;4983661;28;20117;-71
2022/02/27 03:57:25;;;;;;;12.43;4.50;;;;;;;-4.26;94.53;96710.53;4989882;28;20070;-72
2022/02/27 03:59:51;;;;;;;11.27;4.15;;;;;;;-4.22;95.24;96711.84;4988505;28;20064;-71
2022/02/27 04:02:16;;;;;;;11.90;3.80;;;;;;;-4.17;95.04;96714.78;4989204;28;20453;-71
2022/02/27 04:04:42;;;;;;;12.52;4.55;;;;;;;-4.17;94.61;96719.91;4988186;28;20038;-71
2022/02/27 04:07:07;;;;;;;10.85;4.05;;;;;;;-4.13;93.41;96716.09;4988227;28;20444;-71
2022/02/27 04:09:33;;;;;;;15.43;3.92;;;;;;;-4.17;94.08;96714.78;4989187;28;20039;-71
2022/02/27 04:11:58;;;;;;;13.00;4.38;;;;;;;-4.21;94.33;96719.41;4987129;28;20507;-72
2022/02/27 04:14:24;;;;;;;11.20;3.80;;;;;;;-4.11;94.42;96719.31;4984046;28;20125;-71
2022/02/27 04:16:50;;;;;;;16.30;4.20;;;;;;;-4.09;93.20;96727.72;4989408;28;20046;-71
2022/02/27 04:19:15;;;;;;;12.65;3.78;;;;;;;-4.13;92.49;96721.25;4989636;28;20042;-71
2022/02/27 04:21:41;;;;;;;9.55;3.92;;;;;;;-4.26;93.89;96731.09;4988720;28;20562;-71
2022/02/27 04:24:06;;;;;;;13.55;4.28;;;;;;;-4.24;93.85;96731.75;4987462;28;20081;-71
2022/02/27 04:26:32;;;;;;;16.05;4.10;;;;;;;-4.32;94.81;96726.50;4987701;28;20046;-72
2022/02/27 04:28:57;;;;;;;12.50;4.03;;;;;;;-4.30;95.24;96724.63;4989430;28;20042;-72
2022/02/27 04:31:23;;;;;;;9.50;3.92;;;;;;;-4.26;94.43;96725.94;4985312;28;20050;-72
2022/02/27 04:33:48;;;;;;;14.05;4.25;;;;;;;-4.26;94.79;96721.59;4988801;28;20492;-71
2022/02/27 04:36:14;;;;;;;9.98;3.90;;;;;;;-4.33;94.58;96719.78;4984775;28;20054;-71
2022/02/27 04:38:40;;;;;;;7.82;3.85;;;;;;;-4.43;95.58;96710.34;4977099;28;20267;-71
2022/02/27 04:41:05;;;;;;;9.00;3.72;;;;;;;-4.35;94.25;96714.78;4980818;28;20073;-72
2022/02/27 04:43:31;;;;;;;14.15;3.83;;;;;;;-4.42;94.70;96706.84;4977530;28;20113;-71
2022/02/27 04:45:57;;;;;;;9.32;3.72;;;;;;;-4.39;93.96;96719.41;4973915;28;20488;-72
2022/02/27 04:48:24;;;;;;;9.93;3.88;;;;;;;-4.39;94.28;96709.13;4975229;28;20093;-71
2022/02/27 04:50:49;;;;;;;10.88;4.28;;;;;;;-4.43;95.02;96715.50;4981037;28;20062;-72
2022/02/27 04:53:15;;;;;;;9.00;3.70;;;;;;;-4.54;95.72;96718.28;4981099;28;20053;-72
2022/02/27 04:55:40;;;;;;;14.77;3.83;;;;;;;-4.53;95.43;96709.63;4985440;28;20054;-72
2022/02/27 04:58:06;;;;;;;10.40;3.72;;;;;;;-4.66;96.36;96711.72;4989125;28;20070;-72
2022/02/27 05:00:32;;;;;;;16.08;4.10;;;;;;;-4.84;96.98;96715.06;4983023;28;20046;-72
2022/02/27 05:02:57;;;;;;;19.33;4.80;;;;;;;-4.85;97.37;96716.00;4986414;28;20051;-72
2022/02/27 05:05:23;;;;;;;12.05;4.28;;;;;;;-4.78;97.92;96713.69;4988810;28;20053;-72
2022/02/27 05:07:48;;;;;;;9.93;3.72;;;;;;;-4.67;95.28;96717.81;4989237;28;20047;-72
2022/02/27 05:10:14;;;;;;;14.48;4.18;;;;;;;-4.78;95.07;96717.06;4988646;28;20058;-72
2022/02/27 05:12:41;;;;;;;10.05;3.58;;;;;;;-4.87;95.15;96712.75;4975591;28;20069;-72
2022/02/27 05:15:08;;;;;;;17.02;4.30;;;;;;;-4.91;96.03;96714.03;4986663;28;20085;-72
2022/02/27 05:17:35;;;;;;;10.30;4.00;;;;;;;-4.90;96.50;96713.06;4988995;28;20042;-72
2022/02/27 05:20:02;;;;;;;11.68;4.00;;;;;;;-4.84;96.60;96711.69;4983726;28;20046;-72
2022/02/27 05:22:27;;;;;;;11.73;3.78;;;;;;;-4.85;96.56;96705.75;4984126;28;20534;-72
2022/02/27 05:24:53;;;;;;;11.68;4.50;;;;;;;-4.95;95.84;96700.66;4981204;28;20034;-72
2022/02/27 05:27:18;;;;;;;8.75;3.75;;;;;;;-4.87;95.50;96708.47;4984614;28;20045;-72
2022/02/27 05:29:44;;;;;;;17.73;4.85;;;;;;;-4.95;95.52;96717.81;4992720;28;20043;-72
2022/02/27 05:32:09;;;;;;;14.32;4.07;;;;;;;-5.01;96.00;96716.63;4988678;28;20047;-72
2022/02/27 05:34:35;;;;;;;17.95;4.70;;;;;;;-5.07;96.16;96718.00;4990331;28;20544;-72
2022/02/27 05:37:01;;;;;;;9.70;4.05;;;;;;;-5.14;96.01;96722.09;4992637;28;20038;-72
2022/02/27 05:39:26;;;;;;;17.02;4.72;;;;;;;-5.19;96.48;96724.25;4992441;28;20096;-72
2022/02/27 05:41:52;;;;;;;12.75;3.53;;;;;;;-5.03;96.49;96727.97;4984725;28;20047;-72
2022/02/27 05:44:17;;;;;;;15.32;4.05;;;;;;;-5.01;95.01;96720.94;4987392;28;20657;-72
2022/02/27 05:46:43;;;;;;;15.52;4.65;;;;;;;-5.02;96.00;96734.75;4986959;28;20096;-72
2022/02/27 05:49:08;;;;;;;13.02;4.15;;;;;;;-5.09;96.51;96730.16;4992334;28;20042;-71
2022/02/27 05:51:34;;;;;;;13.52;4.10;;;;;;;-5.18;97.34;96741.28;4990767;28;20065;-72
2022/02/27 05:54:00;;;;;;;14.15;4.05;;;;;;;-5.14;97.01;96737.47;4990990;28;20050;-72
2022/02/27 05:56:25;;;;;;;12.82;4.43;;;;;;;-5.10;96.55;96743.97;4981591;28;20046;-72
2022/02/27 05:58:51;;;;;;;18.77;4.68;;;;;;;-5.18;96.97;96740.47;4991562;28;20034;-72
2022/02/27 06:01:17;;;;;;;15.70;4.93;;;;;;;-5.19;97.72;96744.78;4992000;28;20042;-72
2022/02/27 06:03:43;;;;;;;11.23;4.50;;;;;;;-5.25;98.51;96745.34;4989071;28;20073;-72
2022/02/27 06:06:09;;;;;;;12.25;4.18;;;;;;;-5.19;97.51;96749.13;4992325;28;20104;-72
2022/02/27 06:08:34;;;;;;;14.48;4.68;;;;;;;-5.13;96.63;96758.81;4991159;28;20420;-72
2022/02/27 06:11:00;;;;;;;13.98;4.70;;;;;;;-5.16;96.88;96759.91;4991606;28;20401;-72
2022/02/27 06:13:25;;;;;;;9.95;4.10;;;;;;;-5.26;97.86;96759.94;4988863;28;20077;-72
2022/02/27 06:15:51;;;;;;;13.00;4.70;;;;;;;-5.36;97.96;96761.69;4991180;28;20579;-72
2022/02/27 06:18:17;;;;;;;11.18;4.95;;;;;;;-5.54;98.93;96759.06;4991562;28;20042;-72
2022/02/27 06:20:43;;;;;;;13.52;4.43;;;;;;;-5.36;97.86;96754.00;4988616;28;20042;-72
2022/02/27 06:23:10;;;;;;;14.65;4.68;;;;;;;-5.28;97.47;96766.16;4981035;28;20519;-72
2022/02/27 06:25:36;;;;;;;14.63;4.82;;;;;;;-5.25;97.75;96763.31;4989620;28;20057;-72
2022/02/27 06:28:03;;;;;;;14.05;4.97;;;;;;;-5.27;97.56;96762.66;4991390;28;20603;-72
2022/02/27 06:30:28;;;;;;;14.27;5.20;;;;;;;-5.24;97.58;96773.44;4991196;28;20467;-72
2022/02/27 06:32:54;;;;;;;11.48;4.65;;;;;;;-5.19;97.17;96770.44;4986054;28;20070;-72
2022/02/27 06:35:21;;;;;;;15.00;4.40;;;;;;;-5.09;97.45;96771.22;4991547;28;20189;-72
2022/02/27 06:37:47;;;;;;;12.07;4.07;;;;;;;-4.96;98.36;96772.69;4990697;28;20121;-72
2022/02/27 06:40:14;;;;;;;16.25;5.20;;;;;;;-4.84;98.57;96784.41;4987399;28;20118;-73
2022/02/27 06:42:41;;;;;;;12.80;4.75;;;;;;;-4.67;98.84;96774.31;4972414;28;20058;-73
2022/02/27 06:45:08;;;;;;;17.40;4.47;;;;;;;-4.62;99.25;96772.16;4983336;28;20049;-72
2022/02/27 06:47:34;;;;;;;18.95;5.70;;;;;;;-4.59;98.90;96777.00;4984975;28;20157;-73
2022/02/27 06:49:59;;;;;;;18.23;5.30;;;;;;;-4.44;99.02;96775.56;4988107;28;20054;-71
2022/02/27 06:52:25;;;;;;;18.25;5.60;;;;;;;-4.52;98.47;96772.91;4989799;28;20053;-72
2022/02/27 06:54:51;;;;;;;12.13;5.18;;;;;;;-4.55;99.04;96784.28;4989482;28;20045;-72
2022/02/27 06:57:17;;;;;;;21.70;5.68;;;;;;;-4.52;100.00;96775.47;4984688;28;20101;-72
2022/02/27 06:59:42;;;;;;;15.00;5.47;;;;;;;-4.55;100.00;96784.28;4986805;28;20416;-72
2022/02/27 07:02:08;;;;;;;25.05;7.20;;;;;;;-4.42;100.00;96783.94;4990224;28;20063;-72
2022/02/27 07:04:35;;;;;;;15.80;6.75;;;;;;;-4.41;100.00;96780.41;4978581;28;20733;-72
2022/02/27 07:07:00;;;;;;;28.50;6.25;;;;;;;-4.31;100.00;96776.97;4988966;28;20113;-71
2022/02/27 07:09:26;;;;;;;20.88;6.90;;;;;;;-4.20;100.00;96776.78;4990747;28;20722;-72
2022/02/27 07:11:53;;;;;;;18.33;6.07;;;;;;;-4.09;100.00;96774.00;4991137;28;20051;-74
2022/02/27 07:14:22;;;;;;;24.75;7.95;;;;;;;-4.01;100.00;96776.66;4989558;28;20074;-73
2022/02/27 07:16:47;;;;;;;20.60;6.57;;;;;;;-3.92;100.00;96784.44;4990705;28;20038;-71
2022/02/27 07:19:13;;;;;;;17.27;7.30;;;;;;;-3.91;100.00;96783.47;4991629;28;20076;-72
2022/02/27 07:21:39;;;;;;;18.27;7.07;;;;;;;-3.86;100.00;96789.00;4989794;28;20038;-72
2022/02/27 07:24:05;;;;;;;17.42;7.53;;;;;;;-3.77;100.00;96788.09;4984753;28;20081;-72
2022/02/27 07:26:30;;;;;;;26.45;7.65;;;;;;;-3.58;100.00;96788.91;4989058;28;20042;-72
2022/02/27 07:28:56;;;;;;;19.77;8.07;;;;;;;-3.35;100.00;96791.81;4989787;28;20053;-73
2022/02/27 07:31:21;;;;;;;25.58;8.52;;;;;;;-3.24;100.00;96793.34;4990874;28;20073;-72
2022/02/27 07:33:49;;;;;;;19.63;8.43;;;;;;;-3.18;100.00;96795.31;4990453;28;20168;-73
2022/02/27 07:36:14;;;;;;;18.92;8.43;;;;;;;-3.06;100.00;96801.84;4990254;28;20062;-72
2022/02/27 07:38:40;;;;;;;22.60;8.82;;;;;;;-2.97;100.00;96800.91;4988660;28;20042;-72
2022/02/27 07:41:06;;;;;;;24.35;8.75;;;;;;;-2.85;100.00;96805.81;4989372;28;20093;-72
2022/02/27 07:43:31;;;;;;;20.00;8.48;;;;;;;-2.67;100.00;96816.03;4974381;28;20097;-74
2022/02/27 07:45:57;;;;;;;23.02;8.38;;;;;;;-2.64;100.00;96816.56;4970707;28;20043;-72
2022/02/27 07:48:22;;;;;;;21.23;8.23;;;;;;;-2.55;100.00;96811.44;4971551;28;20097;-72
2022/02/27 07:50:48;;;;;;;17.88;8.35;;;;;;;-2.48;100.00;96812.44;4990306;28;20046;-72
2022/02/27 07:53:14;;;;;;;19.55;8.27;;;;;;;-2.40;100.00;96802.16;4989579;28;20050;-72
2022/02/27 07:55:40;;;;;;;17.52;8.15;;;;;;;-2.40;100.00;96807.31;4982581;28;20104;-72
2022/02/27 07:58:06;;;;;;;25.20;8.40;;;;;;;-2.09;100.00;96814.50;4990937;28;20590;-74
2022/02/27 08:00:31;;;;;;;22.48;9.10;;;;;;;-1.89;100.00;96814.25;4990656;28;20498;-73
2022/02/27 08:02:57;;;;;;;22.15;9.00;;;;;;;-1.75;99.09;96806.69;4990038;28;20562;-71
2022/02/27 08:05:22;;;;;;;20.08;8.15;;;;;;;-1.67;98.44;96813.59;4976390;28;20035;-71
2022/02/27 08:07:48;;;;;;;28.20;8.95;;;;;;;-1.66;98.78;96815.22;4977948;28;20445;-72
2022/02/27 08:10:14;;;;;;;19.60;7.97;;;;;;;-1.66;98.79;96810.06;4975648;28;20049;-72
2022/02/27 08:12:43;;;;;;;21.13;8.45;;;;;;;-1.53;98.66;96816.53;4986226;28;20942;-71
2022/02/27 08:15:10;;;;;;;20.77;8.70;;;;;;;-1.53;98.63;96819.13;4987165;28;20515;-71
2022/02/27 08:17:37;;;;;;;18.38;8.98;;;;;;;-1.48;98.29;96816.84;4989976;28;20042;-72
2022/02/27 08:20:04;;;;;;;21.25;8.88;;;;;;;-1.38;97.80;96812.34;4986198;28;20126;-72
2022/02/27 08:22:30;;;;;;;19.45;8.52;;;;;;;-1.17;97.71;96813.63;4977094;28;20054;-72
2022/02/27 08:24:56;;;;;;;23.30;9.38;;;;;;;-1.04;96.18;96803.59;4984698;28;20042;-71
2022/02/27 08:27:22;;;;;;;23.88;9.95;;;;;;;-0.79;94.77;96806.13;4975874;28;20424;-71
2022/02/27 08:29:49;;;;;;;26.20;9.73;;;;;;;-0.93;94.90;96816.19;4976269;28;20112;-71
2022/02/27 08:32:16;;;;;;;29.48;9.55;;;;;;;-0.83;94.56;96804.84;4981838;28;20506;-71
2022/02/27 08:34:42;;;;;;;28.58;10.60;;;;;;;-0.76;94.24;96810.97;4989048;28;20070;-77
2022/02/27 08:37:08;;;;;;;26.92;10.57;;;;;;;-0.59;91.65;96812.56;4988574;28;20069;-73
2022/02/27 08:39:34;;;;;;;25.85;10.18;;;;;;;-0.56;90.82;96807.03;4982768;28;20038;-73
2022/02/27 08:42:01;;;;;;;32.17;11.30;;;;;;;-0.39;88.82;96804.38;4982926;28;20077;-74
2022/02/27 08:44:28;;;;;;;33.20;11.38;;;;;;;-0.31;87.64;96809.53;4983979;28;20043;-74
2022/02/27 08:46:58;;;;;;;30.92;9.48;;;;;;;-0.16;85.11;96801.06;4979392;28;20039;-73
2022/02/27 08:49:24;;;;;;;24.40;8.23;;;;;;;0.12;82.88;96802.19;4987439;28;20060;-74
2022/02/27 08:51:51;;;;;;;17.45;7.40;;;;;;;0.16;80.78;96806.06;4981741;28;20039;-75
2022/02/27 08:54:17;;;;;;;19.92;6.68;;;;;;;0.19;79.91;96799.75;4987146;28;20598;-74
2022/02/27 08:56:43;;;;;;;19.60;7.28;;;;;;;0.15;79.67;96803.66;4988179;28;20038;-74
2022/02/27 08:59:09;;;;;;;22.42;7.25;;;;;;;0.43;75.89;96800.53;4989584;28;20045;-73
2022/02/27 09:01:34;;;;;;;17.02;6.82;;;;;;;0.42;76.11;96804.91;4982944;28;20516;-73
2022/02/27 09:04:00;;;;;;;21.10;6.97;;;;;;;0.55;76.94;96803.50;4987718;28;20046;-73
2022/02/27 09:06:26;;;;;;;18.92;7.53;;;;;;;0.63;75.29;96804.28;4987032;28;20554;-73
2022/02/27 09:08:52;;;;;;;19.25;7.38;;;;;;;0.67;74.26;96807.31;4974940;28;20519;-73
2022/02/27 09:11:17;;;;;;;16.92;6.03;;;;;;;0.75;74.63;96799.47;4974093;28;20038;-73
2022/02/27 09:13:43;;;;;;;20.25;7.07;;;;;;;1.00;71.35;96801.84;4969317;28;20097;-73
2022/02/27 09:16:08;;;;;;;15.82;5.70;;;;;;;1.06;69.01;96795.94;4973666;28;20507;-74
2022/02/27 09:18:34;;;;;;;13.07;4.90;;;;;;;1.06;66.81;96795.94;4969988;28;20590;-73
2022/02/27 09:20:59;;;;;;;16.15;5.05;;;;;;;1.09;66.91;96798.19;4971897;28;20130;-72
2022/02/27 09:23:25;;;;;;;12.30;5.00;;;;;;;1.24;67.15;96797.41;4971907;28;20053;-72
2022/02/27 09:25:51;;;;;;;15.80;5.38;;;;;;;1.21;68.22;96794.19;4986496;28;20038;-73
2022/02/27 09:28:16;;;;;;;13.27;4.95;;;;;;;1.27;67.99;96797.84;4992458;28;20117;-71
2022/02/27 09:30:43;;;;;;;12.30;4.72;;;;;;;1.34;68.30;96788.38;4991936;28;20185;-71
2022/02/27 09:33:09;;;;;;;10.48;3.65;;;;;;;1.62;63.90;96784.34;4986763;28;20117;-74
2022/02/27 09:35:35;;;;;;;15.43;4.63;;;;;;;1.73;63.00;96792.44;4985807;28;20130;-70
2022/02/27 09:38:01;;;;;;;8.43;4.40;;;;;;;1.56;62.59;96786.66;4986688;28;20041;-70
2022/02/27 09:40:28;;;;;;;11.38;4.13;;;;;;;1.85;62.92;96787.63;4988430;28;20529;-71
2022/02/27 09:42:55;;;;;;;11.18;4.45;;;;;;;1.80;63.06;96789.94;4984664;28;20070;-71
2022/02/27 09:45:21;;;;;;;10.65;4.15;;;;;;;2.14;61.33;96788.53;4976694;28;20047;-72
2022/02/27 09:47:51;;;;;;;14.27;5.10;;;;;;;1.99;61.05;96785.16;4989630;28;20078;-72
2022/02/27 09:50:18;;;;;;;10.43;4.10;;;;;;;2.21;58.13;96798.97;4984515;28;20126;-72
2022/02/27 09:52:45;;;;;;;9.35;3.78;;;;;;;2.46;58.28;96790.81;4988017;28;20054;-71
2022/02/27 09:55:12;;;;;;;9.30;4.32;;;;;;;2.29;58.99;96779.88;4984173;28;20112;-73
2022/02/27 09:57:38;;;;;;;15.63;5.07;;;;;;;2.22;59.82;96775.41;4988740;28;20034;-72
2022/02/27 10:00:08;;;;;;;12.13;4.82;;;;;;;2.24;59.55;96794.22;4988998;28;20464;-72
2022/02/27 10:02:34;;;;;;;14.38;4.75;;;;;;;2.50;59.18;96790.28;4985285;28;20512;-73
2022/02/27 10:05:00;;;;;;;17.08;6.15;;;;;;;2.50;59.46;96792.88;4987029;28;20567;-74
2022/02/27 10:07:26;;;;;;;14.55;5.78;;;;;;;3.03;58.67;96786.47;4989196;28;20050;-72
2022/02/27 10:10:07;;;;;;;17.35;6.80;;;;;;;3.01;60.02;96788.47;4988188;28;20100;-72
2022/02/27 10:12:32;;;;;;;19.98;7.13;;;;;;;3.33;58.18;96786.25;4973492;28;20647;-72
2022/02/27 10:15:10;;;;;;;15.35;6.30;;;;;;;3.50;57.86;96781.56;4981422;28;20106;-72
2022/02/27 10:17:41;;;;;;;19.20;7.50;;;;;;;4.60;56.15;96782.25;4993080;28;20039;-73
2022/02/27 10:20:15;;;;;;;16.77;6.38;;;;;;;5.88;53.87;96778.41;4991283;28;20050;-72
2022/02/27 10:22:42;;;;;;;;;;;;;;;5.92;50.09;96767.53;4989575;28;20049;-73
2022/02/27 10:25:12;;;;;;;17.08;7.53;;;;;;;4.61;51.76;96775.22;4989772;28;20375;-71
2022/02/27 10:27:42;;;;;;;14.98;7.50;;;;;;;4.62;54.19;96782.84;4992172;28;20408;-71
2022/02/27 10:30:15;;;;;;;18.58;8.02;;;;;;;6.26;48.83;96778.66;4993296;28;20038;-75
2022/02/27 10:32:48;;;;;;;17.00;7.50;;;;;;;5.57;51.05;96784.34;4987311;28;20626;-72
2022/02/27 10:35:33;;;;;;;16.98;8.27;;;;;;;6.51;48.70;96776.09;4992092;28;20049;-72
2022/02/27 10:37:59;;;;;;;20.30;8.70;;;;;;;6.97;46.99;96764.47;4990058;28;20492;-72
2022/02/27 10:40:32;;;;;;;15.90;7.35;;;;;;;6.80;47.06;96766.03;4991276;28;20065;-72
2022/02/27 10:42:59;;;;;;;14.93;8.25;;;;;;;6.10;48.76;96751.19;4986739;28;20043;-73
2022/02/27 10:45:27;;;;;;;14.25;7.68;;;;;;;6.85;47.20;96766.97;4987006;28;20038;-73
2022/02/27 10:48:07;;;;;;;13.45;7.43;;;;;;;8.46;44.39;96759.91;4988200;28;20046;-75
2022/02/27 10:50:34;;;;;;;14.98;7.85;;;;;;;8.00;47.59;96762.13;4979586;28;20117;-74
2022/02/27 10:53:00;;;;;;;12.73;7.40;;;;;;;8.65;43.23;96763.28;4989300;28;20105;-75
2022/02/27 10:55:26;;;;;;;16.00;7.22;;;;;;;7.55;43.53;96754.63;4985771;28;20039;-72
2022/02/27 10:57:52;;;;;;;11.27;5.90;;;;;;;8.23;43.23;96755.38;4986893;28;20053;-72
2022/02/27 11:00:31;;;;;;;13.52;6.60;;;;;;;8.69;41.88;96753.91;4991905;28;20046;-72
2022/02/27 11:03:02;;;;;;;13.30;7.53;;;;;;;8.86;42.58;96753.25;4991735;28;20046;-72
2022/02/27 11:05:35;;;;;;;14.50;7.13;;;;;;;9.07;41.81;96734.28;4980028;28;20066;-73
2022/02/27 11:08:03;;;;;;;14.68;7.18;;;;;;;8.98;41.11;96748.81;4974486;28;20046;-72
2022/02/27 11:10:31;;;;;;;11.65;6.60;;;;;;;9.30;40.89;96737.94;4972553;28;20493;-72
2022/02/27 11:12:59;;;;;;;12.38;7.07;;;;;;;8.51;41.84;96736.44;4974436;28;20039;-72
2022/02/27 11:15:26;;;;;;;12.77;6.70;;;;;;;9.83;39.93;96736.88;4984557;28;20054;-72
2022/02/27 11:17:51;;;;;;;10.98;6.60;;;;;;;10.26;38.42;96728.69;4976494;28;20043;-73
2022/02/27 11:20:19;;;;;;;13.68;5.68;;;;;;;10.00;39.18;96736.16;4981878;28;20047;-73
2022/02/27 11:22:46;;;;;;;10.90;5.43;;;;;;;10.74;37.70;96727.41;4990741;28;20428;-73